ポンタ・デルガダ の空港の天気 - METARとTAF

ポンタ・デルガダ空港 ( LPPD / PDL ) - ポルトガル ポンタ・デルガダ (サンミゲル島)
飛行場実況気象(Metar)
観測時間05/28 23:00 AZOST (05/28 23:00 UTC)
風向・風速北西 4m/s
視程10km以上
天気現象
少しの雲 雲底高度 550m
気温15℃
湿度67%
気圧1014hPa
METARLPPD 282300Z 31008KT 9999 FEW018 15/09 Q1014
過去の天気等 Google飛行場航空写真 Wunderground天気予報

過去48時間のMETAR

飛行場予報(TAF)
発表時間: 5/28 17:00 AZOST (5/28 17:00 UTC)
予報対象時間: 28日18時 AZOST ~ 29日18時 AZOST
風向・風速北北西 7m/s
視程10km以上
全天の4割程度の雲 雲底高度 460m
全天の4割程度の雲 雲底高度 1220m
28日18時 AZOST ~ 29日18時 AZOST に 確率 40% で一時的に
風向・風速北北西 8m/s 瞬間風速 13m/s
29日6時 AZOST ~ 29日18時 AZOST に一時的に
視程5000m
天気現象しゅう雨
全天の8割程度の雲 雲底高度 460m
少しの積乱雲 雲底高度 610m
TAF LPPD 281700Z 2818/2918 34013KT 9999 SCT015 SCT040
PROB40 TEMPO 2818/2918 34015G25KT
TEMPO 2906/2918 5000 SHRA BKN015 FEW020CB